Time;durP1;ratioP1;P1;durP2;ratioP2;P2;SDS_P1;SDS_P2;PMS_P1;PMS_P2;Temp;Humidity;BMP_temperature;BMP_pressure;BME280_temperature;BME280_humidity;BME280_pressure;Samples;Min_cycle;Max_cycle;Signal;HPM_P1;HPM_P2
2021/12/20 00:02:11;;;;;;;3.45;0.73;;;25.50;32.40;;;;;;5128859;28;20122;-62
2021/12/20 00:04:39;;;;;;;3.03;0.75;;;25.50;32.40;;;;;;5128616;28;20043;-63
2021/12/20 00:07:04;;;;;;;4.43;0.80;;;25.50;32.40;;;;;;5128711;28;20036;-62
2021/12/20 00:09:30;;;;;;;4.22;0.60;;;25.50;32.30;;;;;;5128541;28;20044;-62
2021/12/20 00:11:56;;;;;;;3.15;0.75;;;25.50;32.40;;;;;;5128761;28;20096;-62
2021/12/20 00:14:21;;;;;;;3.75;0.60;;;25.50;32.30;;;;;;5129665;28;20043;-62
2021/12/20 00:16:47;;;;;;;5.60;1.10;;;25.50;32.30;;;;;;5145691;27;20555;-62
2021/12/20 00:19:13;;;;;;;4.07;0.70;;;25.50;32.20;;;;;;5128302;28;20043;-62
2021/12/20 00:21:39;;;;;;;5.00;1.08;;;25.50;32.20;;;;;;5129871;27;20120;-62
2021/12/20 00:24:05;;;;;;;3.80;0.80;;;25.50;32.40;;;;;;5128244;28;20130;-62
2021/12/20 00:26:30;;;;;;;3.42;0.98;;;25.40;32.30;;;;;;5128192;28;20070;-62
2021/12/20 00:28:56;;;;;;;4.45;0.85;;;25.40;32.30;;;;;;5129607;28;20073;-62
2021/12/20 00:31:22;;;;;;;4.38;0.90;;;25.40;32.40;;;;;;5128201;28;20123;-62
2021/12/20 00:33:47;;;;;;;5.50;1.20;;;25.30;32.40;;;;;;5129264;28;20097;-62
2021/12/20 00:36:21;;;;;;;5.80;1.00;;;25.30;32.40;;;;;;5128145;28;20043;-62
2021/12/20 00:41:33;;;;;;;5.55;0.95;;;25.20;32.50;;;;;;5129421;28;20051;-63
2021/12/20 00:43:59;;;;;;;4.90;1.10;;;25.20;32.50;;;;;;5128357;28;20048;-62
2021/12/20 00:46:25;;;;;;;2.92;0.63;;;25.20;32.50;;;;;;5129622;27;20043;-63
2021/12/20 00:48:51;;;;;;;5.45;0.82;;;25.20;32.50;;;;;;5128273;28;20035;-62
2021/12/20 00:51:17;;;;;;;4.07;0.73;;;25.20;32.50;;;;;;5128610;28;20100;-63
2021/12/20 00:53:43;;;;;;;2.72;1.00;;;25.20;32.50;;;;;;5129613;27;20047;-62
2021/12/20 00:56:08;;;;;;;3.60;0.93;;;25.20;32.50;;;;;;5116138;28;20035;-62
2021/12/20 00:58:34;;;;;;;4.25;0.93;;;25.20;32.50;;;;;;5116059;28;20048;-62
2021/12/20 01:01:06;;;;;;;2.88;0.70;;;25.20;32.50;;;;;;5115269;28;20119;-62
2021/12/20 01:03:33;;;;;;;4.38;1.10;;;25.10;32.50;;;;;;5113934;28;20055;-63
2021/12/20 01:06:00;;;;;;;6.07;1.23;;;25.20;32.60;;;;;;5114493;28;20036;-63
2021/12/20 01:08:29;;;;;;;4.38;0.55;;;25.10;32.50;;;;;;5115173;28;20039;-62
2021/12/20 01:10:56;;;;;;;5.07;1.23;;;25.10;32.50;;;;;;5114989;28;20040;-63
2021/12/20 01:13:25;;;;;;;3.95;0.75;;;25.10;32.50;;;;;;5113706;28;20082;-62
2021/12/20 01:15:54;;;;;;;5.63;1.30;;;25.10;32.50;;;;;;5113558;28;20043;-63
2021/12/20 01:18:21;;;;;;;4.57;1.20;;;25.00;32.50;;;;;;5113768;28;20048;-63
2021/12/20 01:20:51;;;;;;;3.90;0.80;;;25.00;32.50;;;;;;5113698;28;20066;-63
2021/12/20 01:23:20;;;;;;;3.22;0.70;;;25.00;32.50;;;;;;5113648;28;20043;-62
2021/12/20 01:25:46;;;;;;;4.20;1.05;;;24.90;32.60;;;;;;5113296;28;20478;-62
2021/12/20 01:28:12;;;;;;;5.45;0.90;;;24.90;32.60;;;;;;5113393;28;20040;-64
2021/12/20 01:30:39;;;;;;;3.33;0.70;;;24.80;32.80;;;;;;5113118;28;20130;-62
2021/12/20 01:33:08;;;;;;;3.78;0.98;;;24.70;32.90;;;;;;5113232;28;20051;-62
2021/12/20 01:35:34;;;;;;;4.50;0.68;;;24.70;33.00;;;;;;5114426;28;20043;-62
2021/12/20 01:38:00;;;;;;;6.18;0.90;;;24.60;33.10;;;;;;5113580;28;20040;-62
2021/12/20 01:40:26;;;;;;;4.72;0.90;;;24.60;33.10;;;;;;5114409;28;20032;-62
2021/12/20 01:42:55;;;;;;;3.58;0.80;;;24.60;33.20;;;;;;5111936;28;20054;-62
2021/12/20 01:45:23;;;;;;;3.00;0.57;;;24.60;33.10;;;;;;5112946;28;20043;-63
2021/12/20 01:47:59;;;;;;;3.28;1.00;;;24.60;33.10;;;;;;5112197;28;20046;-63
2021/12/20 01:50:41;;;;;;;3.22;0.90;;;24.60;33.00;;;;;;5114331;28;20436;-63
2021/12/20 01:53:07;;;;;;;5.35;1.35;;;24.60;33.00;;;;;;5113126;28;20051;-62
2021/12/20 01:55:36;;;;;;;4.75;1.10;;;24.70;33.00;;;;;;5112934;28;20671;-63
2021/12/20 01:58:02;;;;;;;5.85;1.25;;;24.70;33.00;;;;;;5112675;28;20043;-62
2021/12/20 02:00:29;;;;;;;4.70;1.08;;;24.70;33.00;;;;;;5114144;28;20031;-63
2021/12/20 02:03:01;;;;;;;4.63;1.10;;;24.70;33.00;;;;;;5112817;28;20035;-63
2021/12/20 02:05:48;;;;;;;6.50;1.20;;;24.70;32.90;;;;;;5113757;28;20039;-63
2021/12/20 02:08:22;;;;;;;4.47;1.08;;;24.70;32.90;;;;;;5113304;28;20046;-63
2021/12/20 02:10:49;;;;;;;3.35;0.63;;;24.70;32.90;;;;;;5114027;28;20409;-62
2021/12/20 02:13:17;;;;;;;4.75;0.70;;;24.70;32.90;;;;;;5112428;28;20122;-62
2021/12/20 02:15:43;;;;;;;4.03;1.02;;;24.60;33.00;;;;;;5113866;28;20131;-62
2021/12/20 02:18:09;;;;;;;5.00;1.00;;;24.50;33.00;;;;;;5113707;28;20047;-62
2021/12/20 02:20:36;;;;;;;4.53;1.13;;;24.40;33.10;;;;;;5112578;28;20100;-62
2021/12/20 02:23:03;;;;;;;7.28;1.67;;;24.40;33.20;;;;;;5112320;28;20559;-63
2021/12/20 02:25:30;;;;;;;5.38;1.10;;;24.30;33.30;;;;;;5112525;28;20044;-62
2021/12/20 02:28:00;;;;;;;3.53;0.65;;;24.30;33.30;;;;;;5112456;28;20057;-62
2021/12/20 02:38:41;;;;;;;4.03;0.63;;;24.20;33.60;;;;;;5108473;28;20052;-63
2021/12/20 02:41:13;;;;;;;5.63;1.00;;;24.20;33.70;;;;;;5108886;28;20047;-63
2021/12/20 02:43:52;;;;;;;3.88;1.05;;;24.20;33.70;;;;;;5108537;28;20089;-63
2021/12/20 02:48:57;;;;;;;3.22;0.77;;;24.10;33.70;;;;;;5130157;27;20406;-62
2021/12/20 02:51:24;;;;;;;4.15;0.70;;;24.20;33.60;;;;;;5130208;28;20097;-61
2021/12/20 02:53:50;;;;;;;4.43;0.60;;;24.20;33.60;;;;;;5129225;28;20035;-62
2021/12/20 02:56:17;;;;;;;4.30;0.60;;;24.20;33.60;;;;;;5129044;28;20118;-62
2021/12/20 02:58:43;;;;;;;4.53;0.60;;;24.20;33.50;;;;;;5128774;28;20126;-62
2021/12/20 03:01:08;;;;;;;5.25;0.63;;;24.20;34.30;;;;;;5129092;28;20051;-62
2021/12/20 03:03:37;;;;;;;5.22;0.98;;;24.10;33.50;;;;;;5130284;28;20051;-63
2021/12/20 03:06:18;;;;;;;4.10;0.70;;;24.20;33.60;;;;;;5129979;27;20031;-62
2021/12/20 03:08:47;;;;;;;4.30;0.98;;;24.20;33.50;;;;;;5129076;27;20055;-62
2021/12/20 03:11:13;;;;;;;3.60;0.90;;;24.30;33.40;;;;;;5128633;27;20424;-61
2021/12/20 03:13:40;;;;;;;3.28;1.65;;;24.30;33.30;;;;;;5129645;27;20127;-62
2021/12/20 03:16:06;;;;;;;3.70;0.85;;;24.40;33.20;;;;;;5128844;28;20042;-62
2021/12/20 03:18:31;;;;;;;3.75;0.70;;;24.40;33.20;;;;;;5129824;27;20495;-63
2021/12/20 03:21:00;;;;;;;3.25;0.63;;;24.50;33.10;;;;;;5129922;28;20728;-62
2021/12/20 03:23:26;;;;;;;4.18;0.70;;;24.50;32.90;;;;;;5128693;28;20047;-63
2021/12/20 03:25:52;;;;;;;3.03;0.95;;;24.60;32.90;;;;;;5127436;27;20524;-62
2021/12/20 03:28:17;;;;;;;3.92;0.77;;;24.60;32.80;;;;;;5128286;28;20043;-63
2021/12/20 03:30:46;;;;;;;3.78;1.13;;;24.70;32.80;;;;;;5128218;28;20040;-62
2021/12/20 03:33:11;;;;;;;3.17;0.75;;;24.70;32.80;;;;;;5128485;28;20047;-62
2021/12/20 03:35:40;;;;;;;3.30;0.60;;;24.60;32.70;;;;;;5128152;28;20035;-62
2021/12/20 03:38:06;;;;;;;3.17;1.05;;;24.60;32.80;;;;;;5128509;28;20041;-62
2021/12/20 03:40:32;;;;;;;3.65;0.50;;;24.60;32.90;;;;;;5128153;28;20042;-62
2021/12/20 03:43:01;;;;;;;2.75;0.52;;;24.50;32.90;;;;;;5128247;28;20407;-62
2021/12/20 03:45:27;;;;;;;4.63;0.70;;;24.40;33.00;;;;;;5127921;28;20042;-63
2021/12/20 03:47:55;;;;;;;6.03;1.25;;;24.40;33.00;;;;;;5128974;28;20138;-62
2021/12/20 03:50:21;;;;;;;5.03;0.63;;;24.40;33.10;;;;;;5128026;28;20080;-62
2021/12/20 03:52:47;;;;;;;3.78;0.63;;;24.40;33.10;;;;;;5127747;28;20067;-62
2021/12/20 03:55:16;;;;;;;4.80;0.80;;;24.30;33.10;;;;;;5129581;28;20035;-62
2021/12/20 03:57:42;;;;;;;3.85;0.60;;;24.30;33.20;;;;;;5128933;28;20039;-62
2021/12/20 04:00:11;;;;;;;4.57;1.02;;;24.20;33.20;;;;;;5115955;28;20042;-63
2021/12/20 04:02:41;;;;;;;4.40;0.47;;;24.10;33.30;;;;;;5113945;28;20042;-63
2021/12/20 04:05:08;;;;;;;5.45;1.63;;;24.10;33.40;;;;;;5115176;28;20127;-62
2021/12/20 04:07:34;;;;;;;2.83;0.50;;;24.10;33.40;;;;;;5114146;28;20074;-63
2021/12/20 04:10:00;;;;;;;2.47;0.63;;;24.10;33.40;;;;;;5115097;28;20452;-63
2021/12/20 04:12:25;;;;;;;3.97;0.70;;;24.00;33.40;;;;;;5113740;28;20051;-63
2021/12/20 04:14:51;;;;;;;4.05;0.70;;;24.10;33.40;;;;;;5115200;28;20023;-63
2021/12/20 04:17:17;;;;;;;2.92;0.60;;;24.00;33.40;;;;;;5113630;28;20088;-63
2021/12/20 04:19:42;;;;;;;3.47;0.40;;;24.00;33.40;;;;;;5115043;28;20077;-62
2021/12/20 04:22:08;;;;;;;2.42;0.60;;;24.00;33.40;;;;;;5114973;28;20051;-62
2021/12/20 04:24:34;;;;;;;5.22;0.65;;;24.00;33.30;;;;;;5112805;28;20036;-62
2021/12/20 04:27:00;;;;;;;4.05;0.55;;;24.00;33.40;;;;;;5114549;28;20040;-63
2021/12/20 04:29:28;;;;;;;3.83;0.68;;;24.10;33.40;;;;;;5113416;28;20046;-63
2021/12/20 04:31:53;;;;;;;2.05;0.38;;;24.10;33.30;;;;;;5113395;28;20526;-62
2021/12/20 04:34:22;;;;;;;3.13;0.63;;;24.10;33.30;;;;;;5114748;28;20044;-63
2021/12/20 04:36:48;;;;;;;1.83;0.32;;;24.00;33.30;;;;;;5113470;28;20047;-62
2021/12/20 04:39:18;;;;;;;3.03;0.47;;;24.00;33.30;;;;;;5114594;28;20046;-62
2021/12/20 04:41:44;;;;;;;3.13;0.80;;;24.10;33.30;;;;;;5113074;28;20047;-62
2021/12/20 04:44:10;;;;;;;3.97;0.73;;;24.10;33.30;;;;;;5113233;28;20097;-63
2021/12/20 04:46:35;;;;;;;4.05;0.70;;;24.00;33.20;;;;;;5114027;28;20128;-63
2021/12/20 04:49:02;;;;;;;3.38;0.70;;;24.00;33.30;;;;;;5113071;28;20078;-63
2021/12/20 04:51:28;;;;;;;3.55;0.98;;;24.00;33.30;;;;;;5112886;28;20092;-62
2021/12/20 04:53:53;;;;;;;2.35;0.57;;;24.00;34.10;;;;;;5112952;28;20039;-63
2021/12/20 04:56:19;;;;;;;2.65;0.30;;;24.00;33.20;;;;;;5114214;28;20039;-63
2021/12/20 04:58:45;;;;;;;3.55;0.30;;;24.00;33.20;;;;;;5112870;28;20085;-62
2021/12/20 05:01:10;;;;;;;2.72;0.30;;;24.00;33.30;;;;;;5113117;28;20043;-63
2021/12/20 05:03:36;;;;;;;3.67;0.50;;;24.00;34.10;;;;;;5114355;28;20039;-63
2021/12/20 05:06:02;;;;;;;2.67;0.43;;;24.00;33.30;;;;;;5112991;28;20047;-62
2021/12/20 05:08:34;;;;;;;2.42;0.63;;;23.90;33.20;;;;;;5112624;28;20035;-63
2021/12/20 05:11:00;;;;;;;3.10;0.60;;;24.00;33.30;;;;;;5111598;28;20040;-63
2021/12/20 05:13:26;;;;;;;2.72;0.70;;;24.00;33.20;;;;;;5113981;28;20036;-63
2021/12/20 05:15:52;;;;;;;4.07;0.80;;;23.90;33.20;;;;;;5112642;28;20044;-63
2021/12/20 05:18:18;;;;;;;1.80;0.22;;;23.90;33.20;;;;;;5113673;28;20044;-62
2021/12/20 05:20:43;;;;;;;3.55;0.50;;;23.90;33.20;;;;;;5112519;28;20050;-63
2021/12/20 05:23:09;;;;;;;2.03;0.32;;;23.90;33.20;;;;;;5113705;28;20036;-63
2021/12/20 05:25:40;;;;;;;2.28;0.60;;;23.90;33.30;;;;;;5112318;28;20503;-63
2021/12/20 05:28:06;;;;;;;1.85;0.30;;;23.90;33.20;;;;;;5113728;28;20437;-62
2021/12/20 05:30:31;;;;;;;2.65;0.60;;;23.90;33.20;;;;;;5113663;28;20044;-62
2021/12/20 05:32:57;;;;;;;2.00;0.32;;;23.90;33.20;;;;;;5112479;28;20100;-63
2021/12/20 05:35:23;;;;;;;1.70;0.40;;;23.90;33.10;;;;;;5113826;28;20390;-63
2021/12/20 05:37:49;;;;;;;1.35;0.30;;;23.90;33.20;;;;;;5113423;28;20053;-63
2021/12/20 05:40:16;;;;;;;2.78;0.70;;;23.90;33.20;;;;;;5113294;28;20114;-63
2021/12/20 05:42:45;;;;;;;2.55;0.20;;;23.90;33.20;;;;;;5112230;28;20118;-62
2021/12/20 05:45:11;;;;;;;2.38;0.40;;;23.90;33.20;;;;;;5112131;28;20057;-63
2021/12/20 05:47:39;;;;;;;2.47;0.20;;;23.90;33.20;;;;;;5111628;28;20491;-62
2021/12/20 05:50:07;;;;;;;1.77;0.35;;;23.80;33.20;;;;;;5113136;28;20506;-63
2021/12/20 05:52:33;;;;;;;2.40;0.77;;;23.80;33.20;;;;;;5112028;28;20075;-63
2021/12/20 05:55:03;;;;;;;3.88;0.57;;;23.80;33.20;;;;;;5111990;28;20090;-62
2021/12/20 05:57:29;;;;;;;2.28;0.85;;;23.70;33.30;;;;;;5111978;28;20055;-62
2021/12/20 05:59:55;;;;;;;1.63;0.30;;;23.70;33.30;;;;;;5112901;28;20035;-63
2021/12/20 06:02:21;;;;;;;2.97;0.52;;;23.70;33.30;;;;;;5111684;28;20519;-63
2021/12/20 06:04:50;;;;;;;1.30;0.20;;;23.60;33.30;;;;;;5112895;28;20035;-62
2021/12/20 06:07:18;;;;;;;2.38;0.25;;;23.60;33.30;;;;;;5111715;28;20047;-62
2021/12/20 06:09:43;;;;;;;2.75;0.30;;;23.60;33.40;;;;;;5112720;28;20046;-62
2021/12/20 06:12:13;;;;;;;1.33;0.20;;;23.50;33.50;;;;;;5112761;28;20041;-63
2021/12/20 06:14:39;;;;;;;2.40;0.32;;;23.50;33.50;;;;;;5112862;28;20395;-62
2021/12/20 06:17:05;;;;;;;2.38;0.40;;;23.50;33.40;;;;;;5111637;28;20043;-62
2021/12/20 06:19:30;;;;;;;2.75;0.77;;;23.50;33.40;;;;;;5111280;28;20050;-63
2021/12/20 06:21:56;;;;;;;2.30;0.30;;;23.40;33.40;;;;;;5111335;28;20040;-63
2021/12/20 06:24:23;;;;;;;1.95;0.32;;;23.40;33.50;;;;;;5111542;28;20043;-63
2021/12/20 06:26:50;;;;;;;2.55;0.30;;;23.40;33.50;;;;;;5112397;28;20069;-63
2021/12/20 06:29:19;;;;;;;1.73;0.28;;;23.40;33.50;;;;;;5111504;28;20114;-63
2021/12/20 06:31:45;;;;;;;1.35;0.30;;;23.40;33.50;;;;;;5112413;28;20042;-62
2021/12/20 06:34:11;;;;;;;2.78;0.65;;;23.40;33.50;;;;;;5111196;28;20111;-63
2021/12/20 06:36:37;;;;;;;1.88;0.50;;;23.30;33.50;;;;;;5112335;28;20120;-63
2021/12/20 06:39:06;;;;;;;2.67;0.40;;;23.30;33.50;;;;;;5112352;28;20501;-63
2021/12/20 06:41:32;;;;;;;1.40;0.30;;;23.30;33.50;;;;;;5112301;28;20036;-63
2021/12/20 06:43:58;;;;;;;0.93;0.20;;;23.30;33.50;;;;;;5112495;28;20035;-62
2021/12/20 06:46:25;;;;;;;1.83;0.35;;;23.20;33.60;;;;;;5110241;28;20467;-63
2021/12/20 06:48:51;;;;;;;1.17;0.43;;;23.20;33.60;;;;;;5109870;28;20048;-62
2021/12/20 06:51:17;;;;;;;2.33;0.40;;;23.30;33.70;;;;;;5110910;28;20458;-63
2021/12/20 06:53:42;;;;;;;1.17;0.20;;;23.20;33.60;;;;;;5111707;28;20048;-63
2021/12/20 06:56:08;;;;;;;1.70;0.30;;;23.30;33.60;;;;;;5111685;28;20059;-64
2021/12/20 06:58:37;;;;;;;2.45;0.40;;;23.30;33.70;;;;;;5110020;28;20436;-65
2021/12/20 07:01:03;;;;;;;3.15;0.65;;;23.40;33.70;;;;;;5109858;28;20035;-64
2021/12/20 07:03:28;;;;;;;1.33;0.30;;;23.40;33.70;;;;;;5110378;28;20391;-64
2021/12/20 07:05:54;;;;;;;1.55;0.25;;;23.40;33.50;;;;;;5110758;28;20051;-63
2021/12/20 07:08:22;;;;;;;2.17;0.20;;;23.30;33.60;;;;;;5112082;28;20032;-64
2021/12/20 07:10:48;;;;;;;1.67;0.25;;;23.30;33.80;;;;;;5112062;28;20035;-64
2021/12/20 07:13:15;;;;;;;1.88;0.20;;;23.20;33.90;;;;;;5109813;28;20074;-64
2021/12/20 07:15:41;;;;;;;1.13;0.35;;;23.10;34.10;;;;;;5108654;28;20031;-64
2021/12/20 07:18:07;;;;;;;2.33;0.40;;;23.10;34.30;;;;;;5109512;28;20485;-64
2021/12/20 07:20:33;;;;;;;0.95;0.20;;;23.00;34.50;;;;;;5124887;28;20036;-64
2021/12/20 07:22:59;;;;;;;2.30;0.20;;;22.90;34.60;;;;;;5110359;28;20043;-63
2021/12/20 07:25:25;;;;;;;1.20;0.20;;;22.80;34.60;;;;;;5110075;28;20054;-64
2021/12/20 07:27:52;;;;;;;1.08;0.22;;;22.80;34.70;;;;;;5110609;28;20109;-64
2021/12/20 07:30:19;;;;;;;1.17;0.20;;;22.60;35.00;;;;;;5111982;28;20055;-63
2021/12/20 07:32:45;;;;;;;1.20;0.20;;;22.50;35.20;;;;;;5108993;28;20092;-63
2021/12/20 07:35:12;;;;;;;1.70;0.30;;;22.40;35.20;;;;;;5110375;28;20448;-63
2021/12/20 07:37:38;;;;;;;1.38;0.10;;;22.30;35.20;;;;;;5111570;28;20044;-63
2021/12/20 07:40:05;;;;;;;2.75;0.28;;;22.20;35.20;;;;;;5114232;28;20212;-64
2021/12/20 07:42:31;;;;;;;0.98;0.10;;;22.20;35.20;;;;;;5114273;28;20039;-65
2021/12/20 07:44:57;;;;;;;1.13;0.30;;;22.20;35.20;;;;;;5111633;28;20386;-64
2021/12/20 07:47:22;;;;;;;2.92;0.20;;;22.20;35.20;;;;;;5110668;28;20105;-63
2021/12/20 07:49:49;;;;;;;0.68;0.10;;;22.10;35.30;;;;;;5112931;28;20044;-64
2021/12/20 07:52:15;;;;;;;1.05;0.20;;;22.10;35.40;;;;;;5112011;28;20075;-64
2021/12/20 07:54:41;;;;;;;1.85;0.22;;;22.00;35.40;;;;;;5111267;28;20071;-64
2021/12/20 07:57:06;;;;;;;1.65;0.50;;;22.00;35.40;;;;;;5113433;28;20039;-64
2021/12/20 07:59:32;;;;;;;2.30;0.30;;;22.00;35.30;;;;;;5110240;28;20048;-64
2021/12/20 08:01:58;;;;;;;3.13;0.15;;;22.00;35.30;;;;;;5103457;28;20135;-64
2021/12/20 08:04:23;;;;;;;0.90;0.20;;;22.10;35.20;;;;;;5097832;28;20043;-65
2021/12/20 08:06:49;;;;;;;1.27;0.20;;;22.10;35.20;;;;;;5100712;28;20105;-64
2021/12/20 08:09:15;;;;;;;1.50;0.20;;;22.10;35.10;;;;;;5103372;28;20040;-64
2021/12/20 08:11:41;;;;;;;2.45;0.63;;;22.10;35.10;;;;;;5116625;27;20391;-64
2021/12/20 08:14:07;;;;;;;1.33;0.20;;;22.00;35.00;;;;;;5101324;28;20035;-65
2021/12/20 08:16:33;;;;;;;1.88;0.35;;;22.10;35.10;;;;;;5111080;27;20036;-65
2021/12/20 08:18:58;;;;;;;1.42;0.28;;;22.10;35.10;;;;;;5101823;28;20040;-65
2021/12/20 08:21:24;;;;;;;1.15;0.35;;;22.00;35.20;;;;;;5104929;28;20075;-65
2021/12/20 08:23:50;;;;;;;2.17;0.20;;;22.00;35.40;;;;;;5099555;28;20483;-66
2021/12/20 08:26:16;;;;;;;2.63;0.30;;;21.90;35.50;;;;;;5114819;27;20044;-65
2021/12/20 08:28:42;;;;;;;2.35;0.20;;;21.80;35.60;;;;;;5104698;28;20043;-65
2021/12/20 08:31:08;;;;;;;2.70;0.25;;;21.80;35.80;;;;;;5099477;28;20036;-66
2021/12/20 08:33:35;;;;;;;2.67;0.50;;;21.60;36.10;;;;;;5102597;28;20079;-65
2021/12/20 08:36:03;;;;;;;1.60;0.20;;;21.40;36.20;;;;;;5103360;28;20032;-66
2021/12/20 08:38:29;;;;;;;3.50;0.40;;;21.40;36.20;;;;;;5100271;28;20036;-67
2021/12/20 08:40:55;;;;;;;7.45;0.68;;;21.40;36.30;;;;;;5102233;28;20039;-67
2021/12/20 08:43:23;;;;;;;5.72;0.50;;;21.30;36.70;;;;;;5104271;28;20092;-66
2021/12/20 08:45:50;;;;;;;5.93;0.70;;;21.00;37.40;;;;;;5112385;27;20067;-66
2021/12/20 08:48:16;;;;;;;3.88;0.30;;;20.80;38.10;;;;;;5103251;28;20050;-66
2021/12/20 08:50:43;;;;;;;1.30;0.20;;;20.60;38.70;;;;;;5101447;28;20043;-67
2021/12/20 08:53:10;;;;;;;3.10;0.55;;;20.40;39.20;;;;;;5112675;27;20047;-67
2021/12/20 08:55:37;;;;;;;3.28;0.52;;;20.30;39.60;;;;;;5102062;28;20036;-66
2021/12/20 08:58:04;;;;;;;3.45;0.60;;;20.20;40.00;;;;;;5102430;28;20051;-67
2021/12/20 09:00:34;;;;;;;7.00;0.47;;;20.10;40.30;;;;;;5118427;27;20372;-65
2021/12/20 09:03:01;;;;;;;5.50;0.40;;;20.00;40.60;;;;;;5102254;28;20448;-66
2021/12/20 09:05:28;;;;;;;2.13;0.32;;;20.00;40.80;;;;;;5099963;28;20043;-65
2021/12/20 09:07:56;;;;;;;1.67;0.35;;;19.90;40.90;;;;;;5101336;28;20108;-65
2021/12/20 09:10:22;;;;;;;3.35;0.35;;;19.80;41.00;;;;;;5097833;28;20477;-65
2021/12/20 09:12:50;;;;;;;2.50;0.50;;;19.70;41.00;;;;;;5099345;28;20040;-66
2021/12/20 09:15:17;;;;;;;3.00;0.20;;;19.70;41.10;;;;;;5114439;27;20031;-65
2021/12/20 09:17:46;;;;;;;1.80;0.40;;;19.60;41.20;;;;;;5102744;28;20122;-65
2021/12/20 09:20:12;;;;;;;2.58;0.30;;;19.60;41.20;;;;;;5101128;28;20475;-66
2021/12/20 09:22:49;;;;;;;1.42;0.40;;;19.50;41.20;;;;;;5099828;28;20047;-65
2021/12/20 09:25:20;;;;;;;2.00;0.40;;;19.50;41.40;;;;;;5115164;27;20106;-66
2021/12/20 09:27:46;;;;;;;1.58;0.30;;;19.50;41.40;;;;;;5102719;28;20067;-66
2021/12/20 09:30:12;;;;;;;3.88;0.43;;;19.40;41.40;;;;;;5102313;28;20479;-65
2021/12/20 09:32:38;;;;;;;1.10;0.30;;;19.40;41.50;;;;;;5098364;28;20040;-65
2021/12/20 09:35:05;;;;;;;2.25;0.30;;;19.30;41.60;;;;;;5104256;28;20040;-64
2021/12/20 09:37:30;;;;;;;2.25;0.20;;;19.30;41.70;;;;;;5102265;28;20031;-67
2021/12/20 09:39:56;;;;;;;3.78;0.50;;;19.30;41.80;;;;;;5103893;28;20549;-66
2021/12/20 09:42:22;;;;;;;4.18;0.43;;;19.30;41.90;;;;;;5102391;28;20032;-65
2021/12/20 09:44:49;;;;;;;5.25;0.52;;;19.30;42.00;;;;;;5104716;28;20063;-64
2021/12/20 09:47:15;;;;;;;4.03;0.68;;;19.30;41.90;;;;;;5104418;28;20060;-64
2021/12/20 09:49:41;;;;;;;2.90;0.60;;;19.30;41.80;;;;;;5116255;27;20054;-65
2021/12/20 09:52:07;;;;;;;4.90;0.65;;;19.20;41.60;;;;;;5101467;28;20101;-64
2021/12/20 09:54:33;;;;;;;1.98;0.45;;;19.20;41.50;;;;;;5102392;28;20478;-64
2021/12/20 09:57:06;;;;;;;3.00;0.60;;;19.20;41.50;;;;;;5101411;28;20040;-64
2021/12/20 09:59:37;;;;;;;2.35;0.55;;;19.20;41.40;;;;;;5097406;28;20089;-64
2021/12/20 10:02:05;;;;;;;;;;;19.20;41.40;;;;;;5099434;28;20028;-65
2021/12/20 10:04:31;;;;;;;2.55;0.60;;;19.20;41.30;;;;;;5106845;28;19923;-64
2021/12/20 10:07:00;;;;;;;1.92;0.50;;;19.20;41.40;;;;;;5102507;28;20032;-64
2021/12/20 10:09:30;;;;;;;1.92;0.73;;;19.20;41.40;;;;;;5096829;28;20036;-64
2021/12/20 10:12:15;;;;;;;3.63;0.68;;;19.20;41.40;;;;;;5103575;28;20482;-65
2021/12/20 10:15:03;;;;;;;3.20;0.80;;;19.20;41.40;;;;;;5102963;28;20081;-65
2021/12/20 10:17:50;;;;;;;4.40;0.70;;;19.20;41.40;;;;;;5097884;28;20044;-64
2021/12/20 10:20:19;;;;;;;3.30;0.80;;;19.20;41.50;;;;;;5098057;28;20051;-65
2021/12/20 10:22:45;;;;;;;2.20;0.60;;;19.20;41.50;;;;;;5101000;28;20038;-65
2021/12/20 10:25:29;;;;;;;2.60;0.60;;;19.20;41.50;;;;;;5097489;28;20391;-65
2021/12/20 10:28:07;;;;;;;1.55;0.70;;;19.20;41.50;;;;;;5101367;28;20043;-64
2021/12/20 10:30:37;;;;;;;5.38;0.70;;;19.20;41.60;;;;;;5099437;28;20043;-64
2021/12/20 10:33:04;;;;;;;2.78;0.70;;;19.20;41.70;;;;;;5098188;28;20074;-66
2021/12/20 10:44:00;;;;;;;3.15;0.75;;;19.20;41.80;;;;;;5116926;27;20135;-65
2021/12/20 10:46:29;;;;;;;3.55;0.63;;;19.10;42.70;;;;;;5111446;28;20059;-65
2021/12/20 10:49:14;;;;;;;4.90;0.50;;;19.10;42.80;;;;;;5106190;28;20114;-64
2021/12/20 10:51:44;;;;;;;4.85;0.75;;;19.10;42.70;;;;;;5109882;28;20110;-66
2021/12/20 10:54:14;;;;;;;3.63;0.57;;;19.00;42.80;;;;;;5103704;28;20477;-66
2021/12/20 10:59:31;;;;;;;3.22;0.82;;;19.00;42.90;;;;;;5079806;28;20368;-67
2021/12/20 11:04:49;;;;;;;6.55;0.65;;;19.00;42.70;;;;;;5093732;27;20363;-63
2021/12/20 11:10:09;;;;;;;2.20;0.45;;;19.10;42.60;;;;;;5121052;27;21197;-63
2021/12/20 11:12:35;;;;;;;3.28;0.80;;;19.10;42.50;;;;;;5121491;28;20046;-63
2021/12/20 11:17:46;;;;;;;3.22;0.40;;;19.10;42.40;;;;;;5104039;27;20423;-62
2021/12/20 11:20:18;;;;;;;4.53;0.60;;;19.10;42.40;;;;;;5114353;28;20049;-63
2021/12/20 11:22:44;;;;;;;5.28;0.70;;;19.10;42.20;;;;;;5104185;28;20093;-63
2021/12/20 11:25:11;;;;;;;2.70;0.60;;;19.10;42.20;;;;;;5095699;28;20071;-63
2021/12/20 11:27:46;;;;;;;3.38;0.30;;;19.10;42.30;;;;;;5104450;28;20032;-64
2021/12/20 11:30:16;;;;;;;4.38;0.60;;;19.20;42.40;;;;;;5114438;28;20043;-64
2021/12/20 11:32:43;;;;;;;2.63;0.73;;;19.20;42.30;;;;;;5099356;28;20048;-63
2021/12/20 11:35:09;;;;;;;2.22;0.65;;;19.10;42.30;;;;;;5101540;28;20078;-63
2021/12/20 11:37:35;;;;;;;4.80;0.43;;;19.20;42.40;;;;;;5110240;28;20490;-63
2021/12/20 11:40:05;;;;;;;2.45;0.40;;;19.10;42.90;;;;;;5116047;28;20036;-63
2021/12/20 11:42:31;;;;;;;3.13;0.40;;;19.10;41.50;;;;;;5114731;28;20490;-63
2021/12/20 11:45:00;;;;;;;1.98;0.30;;;19.10;41.00;;;;;;5103241;28;20040;-64
2021/12/20 11:50:08;;;;;;;2.50;0.40;;;19.10;40.60;;;;;;5119187;27;1151973;-64
2021/12/20 11:52:37;;;;;;;2.75;0.70;;;19.10;40.10;;;;;;5130017;27;20170;-64
2021/12/20 11:58:14;;;;;;;2.83;0.30;;;19.10;39.20;;;;;;5119821;27;20416;-63
2021/12/20 12:00:48;;;;;;;3.30;0.52;;;19.10;38.90;;;;;;5115327;28;20510;-64
2021/12/20 12:05:57;;;;;;;3.05;0.35;;;19.10;38.90;;;;;;5117209;27;20358;-64
2021/12/20 12:19:51;;;;;;;5.85;0.22;;;19.30;39.40;;;;;;5089591;27;20417;-65
2021/12/20 12:22:40;;;;;;;4.30;0.70;;;19.80;39.40;;;;;;5062870;28;20488;-67
2021/12/20 12:25:34;;;;;;;2.05;0.38;;;19.90;39.50;;;;;;5067292;28;20499;-66
2021/12/20 12:28:00;;;;;;;2.85;0.20;;;19.90;39.50;;;;;;5071459;28;20081;-66
2021/12/20 12:30:28;;;;;;;2.95;0.22;;;19.90;39.50;;;;;;5095726;28;20044;-64
2021/12/20 13:00:08;;;;;;;4.25;0.63;;;19.90;40.10;;;;;;5092212;27;20380;-67
2021/12/20 13:02:38;;;;;;;1.90;0.30;;;19.60;40.80;;;;;;5071186;28;20044;-66
2021/12/20 13:10:51;;;;;;;3.97;0.20;;;19.50;40.70;;;;;;5116905;27;20380;-66
2021/12/20 13:13:25;;;;;;;3.92;0.20;;;19.40;40.60;;;;;;5102830;28;20070;-64
2021/12/20 13:15:56;;;;;;;4.18;0.10;;;19.30;40.70;;;;;;5103105;28;20044;-65
2021/12/20 13:18:31;;;;;;;3.72;0.35;;;19.30;40.70;;;;;;5106926;28;20046;-65
2021/12/20 13:27:56;;;;;;;17.98;1.67;;;19.40;40.30;;;;;;5097201;27;20828;-65
2021/12/20 13:30:30;;;;;;;11.75;1.42;;;19.40;40.80;;;;;;5109046;28;20109;-64
2021/12/20 13:32:57;;;;;;;9.10;0.60;;;19.40;40.40;;;;;;5068722;28;20604;-65
2021/12/20 13:35:23;;;;;;;2.97;0.30;;;19.40;40.30;;;;;;5091654;28;20036;-66
2021/12/20 13:37:50;;;;;;;9.38;0.50;;;19.40;40.40;;;;;;5094780;28;20072;-67
2021/12/20 13:40:16;;;;;;;6.90;0.55;;;19.40;40.20;;;;;;5075933;28;20032;-66
2021/12/20 13:42:51;;;;;;;8.15;0.40;;;19.30;40.10;;;;;;5077168;28;20097;-65
2021/12/20 13:45:17;;;;;;;13.20;1.30;;;19.30;40.20;;;;;;5091748;28;20040;-64
2021/12/20 13:47:43;;;;;;;8.70;0.73;;;19.30;40.30;;;;;;5097122;28;20040;-65
2021/12/20 13:50:16;;;;;;;4.78;0.50;;;19.30;40.40;;;;;;5093076;28;20111;-64
2021/12/20 13:52:46;;;;;;;16.58;2.30;;;19.30;39.60;;;;;;5076613;28;20032;-62
2021/12/20 13:55:12;;;;;;;28.35;3.25;;;19.30;40.00;;;;;;5061565;28;20427;-66
2021/12/20 13:57:38;;;;;;;52.25;7.03;;;19.40;40.10;;;;;;5096240;28;20040;-66
2021/12/20 14:00:12;;;;;;;35.13;4.07;;;19.40;40.20;;;;;;5106022;28;20036;-64
2021/12/20 14:02:41;;;;;;;32.10;3.25;;;19.50;40.00;;;;;;5086524;28;20036;-66
2021/12/20 14:05:18;;;;;;;19.40;2.80;;;19.40;39.80;;;;;;5076438;28;20493;-66
2021/12/20 14:07:48;;;;;;;26.65;2.50;;;19.40;39.60;;;;;;5092919;28;20044;-66
2021/12/20 14:12:58;;;;;;;13.00;1.58;;;19.40;39.60;;;;;;5098680;27;20364;-67
2021/12/20 14:15:27;;;;;;;17.77;2.00;;;19.30;39.70;;;;;;5093601;28;20032;-67
2021/12/20 14:28:42;;;;;;;8.48;1.35;;;19.30;39.60;;;;;;5123117;27;20359;-65
2021/12/20 14:31:12;;;;;;;12.13;0.75;;;19.20;40.00;;;;;;5109613;28;20063;-66
2021/12/20 14:33:39;;;;;;;;;;;19.20;40.20;;;;;;5113826;28;20040;-66
2021/12/20 14:38:53;;;;;;;6.32;0.80;;;19.20;40.30;;;;;;5116745;27;20417;-68
2021/12/20 14:41:32;;;;;;;7.25;0.65;;;19.20;40.70;;;;;;5087687;28;20072;-69